sensor_id;sensor_type;location;lat;lon;timestamp;pressure;altitude;pressure_sealevel;temperature;humidity
7524;BME280;3803;51.666;7.630;2023-07-29T00:00:07;100170.31;;;21.13;77.37
7524;BME280;3803;51.666;7.630;2023-07-29T00:00:33;100173.81;;;21.15;77.30
7524;BME280;3803;51.666;7.630;2023-07-29T00:00:53;100177.44;;;21.13;77.38
7524;BME280;3803;51.666;7.630;2023-07-29T00:01:15;100173.00;;;21.12;77.23
7524;BME280;3803;51.666;7.630;2023-07-29T00:01:36;100176.50;;;21.14;77.15
7524;BME280;3803;51.666;7.630;2023-07-29T00:01:57;100173.91;;;21.10;77.22
7524;BME280;3803;51.666;7.630;2023-07-29T00:02:18;100180.91;;;21.15;77.11
7524;BME280;3803;51.666;7.630;2023-07-29T00:02:38;100176.50;;;21.14;77.21
7524;BME280;3803;51.666;7.630;2023-07-29T00:02:59;100174.69;;;21.16;76.87
7524;BME280;3803;51.666;7.630;2023-07-29T00:03:19;100182.72;;;21.13;77.08
7524;BME280;3803;51.666;7.630;2023-07-29T00:03:40;100173.00;;;21.12;77.23
7524;BME280;3803;51.666;7.630;2023-07-29T00:04:01;100172.97;;;21.13;77.02
7524;BME280;3803;51.666;7.630;2023-07-29T00:04:22;100186.13;;;21.18;77.15
7524;BME280;3803;51.666;7.630;2023-07-29T00:04:43;100172.94;;;21.15;77.10
7524;BME280;3803;51.666;7.630;2023-07-29T00:05:04;100172.13;;;21.13;77.36
7524;BME280;3803;51.666;7.630;2023-07-29T00:05:24;100172.13;;;21.13;77.22
7524;BME280;3803;51.666;7.630;2023-07-29T00:05:45;100184.47;;;21.14;77.33
7524;BME280;3803;51.666;7.630;2023-07-29T00:06:06;100176.41;;;21.18;77.11
7524;BME280;3803;51.666;7.630;2023-07-29T00:06:27;100182.66;;;21.16;77.14
7524;BME280;3803;51.666;7.630;2023-07-29T00:06:48;100170.28;;;21.15;77.21
7524;BME280;3803;51.666;7.630;2023-07-29T00:07:08;100173.78;;;21.17;76.98
7524;BME280;3803;51.666;7.630;2023-07-29T00:07:29;100170.31;;;21.13;77.21
7524;BME280;3803;51.666;7.630;2023-07-29T00:07:49;100161.50;;;21.13;77.20
7524;BME280;3803;51.666;7.630;2023-07-29T00:08:10;100166.81;;;21.13;77.25
7524;BME280;3803;51.666;7.630;2023-07-29T00:08:31;100165.06;;;21.12;77.34
7524;BME280;3803;51.666;7.630;2023-07-29T00:08:51;100166.75;;;21.14;77.27
7524;BME280;3803;51.666;7.630;2023-07-29T00:09:12;100180.81;;;21.18;77.10
7524;BME280;3803;51.666;7.630;2023-07-29T00:09:33;100179.06;;;21.17;77.29
7524;BME280;3803;51.666;7.630;2023-07-29T00:09:53;100163.31;;;21.10;77.22
7524;BME280;3803;51.666;7.630;2023-07-29T00:10:14;100172.97;;;21.13;77.31
7524;BME280;3803;51.666;7.630;2023-07-29T00:10:38;100173.78;;;21.17;77.31
7524;BME280;3803;51.666;7.630;2023-07-29T00:11:03;100165.91;;;21.14;77.27
7524;BME280;3803;51.666;7.630;2023-07-29T00:11:25;100163.25;;;21.14;77.31
7524;BME280;3803;51.666;7.630;2023-07-29T00:11:45;100158.75;;;21.17;77.13
7524;BME280;3803;51.666;7.630;2023-07-29T00:12:07;100163.25;;;21.14;77.13
7524;BME280;3803;51.666;7.630;2023-07-29T00:12:28;100164.03;;;21.17;77.11
7524;BME280;3803;51.666;7.630;2023-07-29T00:12:48;100154.44;;;21.12;77.17
7524;BME280;3803;51.666;7.630;2023-07-29T00:13:09;100163.28;;;21.12;77.17
7524;BME280;3803;51.666;7.630;2023-07-29T00:13:30;100162.38;;;21.13;77.13
7524;BME280;3803;51.666;7.630;2023-07-29T00:13:50;100156.25;;;21.11;77.11
7524;BME280;3803;51.666;7.630;2023-07-29T00:14:11;100168.47;;;21.17;77.23
7524;BME280;3803;51.666;7.630;2023-07-29T00:14:32;100157.94;;;21.14;77.14
7524;BME280;3803;51.666;7.630;2023-07-29T00:14:52;100159.75;;;21.12;77.12
7524;BME280;3803;51.666;7.630;2023-07-29T00:15:13;100159.75;;;21.12;77.05
7524;BME280;3803;51.666;7.630;2023-07-29T00:15:33;100158.00;;;21.10;76.99
7524;BME280;3803;51.666;7.630;2023-07-29T00:15:54;100157.09;;;21.12;77.10
7524;BME280;3803;51.666;7.630;2023-07-29T00:16:16;100162.38;;;21.13;77.27
7524;BME280;3803;51.666;7.630;2023-07-29T00:16:37;100160.63;;;21.12;77.22
7524;BME280;3803;51.666;7.630;2023-07-29T00:16:58;100157.97;;;21.12;77.34
7524;BME280;3803;51.666;7.630;2023-07-29T00:17:18;100154.44;;;21.12;77.21
7524;BME280;3803;51.666;7.630;2023-07-29T00:17:42;100161.50;;;21.13;77.23
7524;BME280;3803;51.666;7.630;2023-07-29T00:18:03;100154.44;;;21.12;77.56
7524;BME280;3803;51.666;7.630;2023-07-29T00:18:23;100155.31;;;21.12;77.06
7524;BME280;3803;51.666;7.630;2023-07-29T00:18:44;100155.28;;;21.14;77.38
7524;BME280;3803;51.666;7.630;2023-07-29T00:19:06;100156.22;;;21.13;77.41
7524;BME280;3803;51.666;7.630;2023-07-29T00:19:26;100152.63;;;21.14;77.30
7524;BME280;3803;51.666;7.630;2023-07-29T00:19:48;100165.91;;;21.14;77.32
7524;BME280;3803;51.666;7.630;2023-07-29T00:20:09;100157.03;;;21.15;77.33
7524;BME280;3803;51.666;7.630;2023-07-29T00:20:30;100158.75;;;21.17;77.18
7524;BME280;3803;51.666;7.630;2023-07-29T00:20:51;100158.75;;;21.17;77.21
7524;BME280;3803;51.666;7.630;2023-07-29T00:21:11;100162.34;;;21.15;77.22
7524;BME280;3803;51.666;7.630;2023-07-29T00:21:32;100165.81;;;21.17;77.15
7524;BME280;3803;51.666;7.630;2023-07-29T00:21:52;100167.53;;;21.18;77.12
7524;BME280;3803;51.666;7.630;2023-07-29T00:22:13;100165.81;;;21.17;77.17
7524;BME280;3803;51.666;7.630;2023-07-29T00:22:34;100162.38;;;21.13;77.04
7524;BME280;3803;51.666;7.630;2023-07-29T00:22:54;100172.03;;;21.16;77.02
7524;BME280;3803;51.666;7.630;2023-07-29T00:23:17;100168.47;;;21.17;77.00
7524;BME280;3803;51.666;7.630;2023-07-29T00:23:39;100168.56;;;21.14;77.30
7524;BME280;3803;51.666;7.630;2023-07-29T00:23:59;100162.41;;;21.12;77.28
7524;BME280;3803;51.666;7.630;2023-07-29T00:24:21;100165.09;;;21.10;77.05
7524;BME280;3803;51.666;7.630;2023-07-29T00:24:42;100172.91;;;21.16;77.43
7524;BME280;3803;51.666;7.630;2023-07-29T00:25:03;100163.31;;;21.10;77.16
7524;BME280;3803;51.666;7.630;2023-07-29T00:25:23;100165.09;;;21.10;77.22
7524;BME280;3803;51.666;7.630;2023-07-29T00:25:44;100169.47;;;21.13;77.39
7524;BME280;3803;51.666;7.630;2023-07-29T00:26:05;100170.44;;;21.08;77.27
7524;BME280;3803;51.666;7.630;2023-07-29T00:26:26;100162.50;;;21.07;77.27
7524;BME280;3803;51.666;7.630;2023-07-29T00:26:49;100168.72;;;21.07;77.26
7524;BME280;3803;51.666;7.630;2023-07-29T00:27:09;100165.13;;;21.08;77.13
7524;BME280;3803;51.666;7.630;2023-07-29T00:27:30;100163.50;;;21.04;77.21
7524;BME280;3803;51.666;7.630;2023-07-29T00:27:51;100159.03;;;21.05;77.15
7524;BME280;3803;51.666;7.630;2023-07-29T00:28:12;100168.78;;;21.04;77.37
7524;BME280;3803;51.666;7.630;2023-07-29T00:28:33;100159.97;;;21.02;77.46
7524;BME280;3803;51.666;7.630;2023-07-29T00:28:54;100170.56;;;21.04;77.33
7524;BME280;3803;51.666;7.630;2023-07-29T00:29:16;100175.91;;;21.02;77.33
7524;BME280;3803;51.666;7.630;2023-07-29T00:29:36;100173.25;;;21.02;77.53
7524;BME280;3803;51.666;7.630;2023-07-29T00:29:57;100164.56;;;20.97;77.35
7524;BME280;3803;51.666;7.630;2023-07-29T00:30:18;100165.38;;;20.99;77.68
7524;BME280;3803;51.666;7.630;2023-07-29T00:30:38;100157.53;;;20.94;77.53
7524;BME280;3803;51.666;7.630;2023-07-29T00:30:59;100169.91;;;20.94;77.63
7524;BME280;3803;51.666;7.630;2023-07-29T00:31:21;100169.00;;;20.95;77.97
7524;BME280;3803;51.666;7.630;2023-07-29T00:31:41;100165.50;;;20.94;77.79
7524;BME280;3803;51.666;7.630;2023-07-29T00:32:02;100169.06;;;20.93;77.66
7524;BME280;3803;51.666;7.630;2023-07-29T00:32:23;100169.00;;;20.95;77.92
7524;BME280;3803;51.666;7.630;2023-07-29T00:32:43;100166.34;;;20.95;77.86
7524;BME280;3803;51.666;7.630;2023-07-29T00:33:06;100163.75;;;20.93;77.83
7524;BME280;3803;51.666;7.630;2023-07-29T00:33:27;100164.63;;;20.94;77.86
7524;BME280;3803;51.666;7.630;2023-07-29T00:33:48;100172.41;;;21.00;77.91
7524;BME280;3803;51.666;7.630;2023-07-29T00:34:09;100165.53;;;20.93;78.00
7524;BME280;3803;51.666;7.630;2023-07-29T00:34:30;100168.09;;;20.96;77.98
7524;BME280;3803;51.666;7.630;2023-07-29T00:34:51;100173.34;;;20.99;78.05
7524;BME280;3803;51.666;7.630;2023-07-29T00:35:12;100171.63;;;20.96;77.96
7524;BME280;3803;51.666;7.630;2023-07-29T00:35:33;100171.59;;;20.98;77.99
7524;BME280;3803;51.666;7.630;2023-07-29T00:35:54;100173.34;;;20.99;77.87
7524;BME280;3803;51.666;7.630;2023-07-29T00:36:15;100160.22;;;20.93;77.76
7524;BME280;3803;51.666;7.630;2023-07-29T00:36:36;100176.78;;;21.03;77.87
7524;BME280;3803;51.666;7.630;2023-07-29T00:36:56;100156.66;;;20.94;77.95
7524;BME280;3803;51.666;7.630;2023-07-29T00:37:18;100161.09;;;20.93;77.89
7524;BME280;3803;51.666;7.630;2023-07-29T00:37:40;100164.59;;;20.95;78.01
7524;BME280;3803;51.666;7.630;2023-07-29T00:38:00;100162.78;;;20.96;77.97
7524;BME280;3803;51.666;7.630;2023-07-29T00:38:21;100167.22;;;20.97;77.99
7524;BME280;3803;51.666;7.630;2023-07-29T00:38:42;100164.59;;;20.95;78.02
7524;BME280;3803;51.666;7.630;2023-07-29T00:39:03;100164.56;;;20.97;77.92
7524;BME280;3803;51.666;7.630;2023-07-29T00:39:23;100161.91;;;20.97;78.09
7524;BME280;3803;51.666;7.630;2023-07-29T00:39:44;100169.69;;;21.03;78.21
7524;BME280;3803;51.666;7.630;2023-07-29T00:40:14;100163.63;;;20.98;78.14
7524;BME280;3803;51.666;7.630;2023-07-29T00:40:36;100165.38;;;20.99;78.02
7524;BME280;3803;51.666;7.630;2023-07-29T00:40:57;100166.22;;;21.00;78.19
7524;BME280;3803;51.666;7.630;2023-07-29T00:41:20;100165.22;;;21.05;78.20
7524;BME280;3803;51.666;7.630;2023-07-29T00:41:41;100168.78;;;21.04;77.96
7524;BME280;3803;51.666;7.630;2023-07-29T00:42:03;100173.19;;;21.05;77.98
7524;BME280;3803;51.666;7.630;2023-07-29T00:42:24;100167.94;;;21.02;78.25
7524;BME280;3803;51.666;7.630;2023-07-29T00:42:45;100162.63;;;21.02;78.02
7524;BME280;3803;51.666;7.630;2023-07-29T00:43:05;100160.91;;;21.01;77.94
7524;BME280;3803;51.666;7.630;2023-07-29T00:43:26;100159.97;;;21.02;78.09
7524;BME280;3803;51.666;7.630;2023-07-29T00:43:47;100162.63;;;21.02;78.07
7524;BME280;3803;51.666;7.630;2023-07-29T00:44:07;100163.50;;;21.04;77.99
7524;BME280;3803;51.666;7.630;2023-07-29T00:44:28;100157.41;;;21.01;78.02
7524;BME280;3803;51.666;7.630;2023-07-29T00:44:49;100163.50;;;21.04;77.84
7524;BME280;3803;51.666;7.630;2023-07-29T00:45:10;100152.94;;;21.01;78.11
7524;BME280;3803;51.666;7.630;2023-07-29T00:45:31;100154.69;;;21.02;77.95
7524;BME280;3803;51.666;7.630;2023-07-29T00:45:52;100165.22;;;21.05;78.01
7524;BME280;3803;51.666;7.630;2023-07-29T00:46:13;100165.22;;;21.05;78.21
7524;BME280;3803;51.666;7.630;2023-07-29T00:46:35;100159.94;;;21.05;78.01
7524;BME280;3803;51.666;7.630;2023-07-29T00:47:00;100163.50;;;21.04;78.05
7524;BME280;3803;51.666;7.630;2023-07-29T00:47:23;100157.31;;;21.04;78.06
7524;BME280;3803;51.666;7.630;2023-07-29T00:47:46;100161.72;;;21.03;78.11
7524;BME280;3803;51.666;7.630;2023-07-29T00:48:07;100160.75;;;21.07;78.17
7524;BME280;3803;51.666;7.630;2023-07-29T00:48:28;100155.47;;;21.06;78.17
7524;BME280;3803;51.666;7.630;2023-07-29T00:48:50;100158.94;;;21.08;78.07
7524;BME280;3803;51.666;7.630;2023-07-29T00:49:11;100159.84;;;21.08;77.97
7524;BME280;3803;51.666;7.630;2023-07-29T00:49:32;100163.31;;;21.10;78.09
7524;BME280;3803;51.666;7.630;2023-07-29T00:49:52;100151.84;;;21.10;78.36
7524;BME280;3803;51.666;7.630;2023-07-29T00:50:14;100148.94;;;21.19;77.93
7524;BME280;3803;51.666;7.630;2023-07-29T00:50:36;100157.00;;;21.16;77.98
7524;BME280;3803;51.666;7.630;2023-07-29T00:50:57;100158.78;;;21.16;78.18
7524;BME280;3803;51.666;7.630;2023-07-29T00:51:18;100165.91;;;21.14;78.16
7524;BME280;3803;51.666;7.630;2023-07-29T00:51:38;100152.63;;;21.14;78.04
7524;BME280;3803;51.666;7.630;2023-07-29T00:51:59;100155.28;;;21.14;77.92
7524;BME280;3803;51.666;7.630;2023-07-29T00:52:20;100153.56;;;21.13;78.17
7524;BME280;3803;51.666;7.630;2023-07-29T00:52:41;100157.94;;;21.14;78.13
7524;BME280;3803;51.666;7.630;2023-07-29T00:53:02;100142.97;;;21.11;78.05
7524;BME280;3803;51.666;7.630;2023-07-29T00:53:22;100154.44;;;21.12;78.08
7524;BME280;3803;51.666;7.630;2023-07-29T00:53:44;100154.44;;;21.12;77.96
7524;BME280;3803;51.666;7.630;2023-07-29T00:54:05;100155.34;;;21.10;78.07
7524;BME280;3803;51.666;7.630;2023-07-29T00:54:26;100144.84;;;21.07;78.07
7524;BME280;3803;51.666;7.630;2023-07-29T00:54:47;100150.13;;;21.07;77.85
7524;BME280;3803;51.666;7.630;2023-07-29T00:55:11;100156.38;;;21.06;77.98
7524;BME280;3803;51.666;7.630;2023-07-29T00:55:32;100157.19;;;21.08;77.94
7524;BME280;3803;51.666;7.630;2023-07-29T00:55:53;100157.28;;;21.05;77.95
7524;BME280;3803;51.666;7.630;2023-07-29T00:56:14;100152.88;;;21.04;78.03
7524;BME280;3803;51.666;7.630;2023-07-29T00:56:35;100156.38;;;21.06;78.03
7524;BME280;3803;51.666;7.630;2023-07-29T00:56:55;100152.94;;;21.01;78.03
7524;BME280;3803;51.666;7.630;2023-07-29T00:57:17;100157.34;;;21.02;77.79
7524;BME280;3803;51.666;7.630;2023-07-29T00:57:39;100152.09;;;21.01;77.89
7524;BME280;3803;51.666;7.630;2023-07-29T00:58:00;100156.50;;;21.00;78.03
7524;BME280;3803;51.666;7.630;2023-07-29T00:58:21;100146.00;;;20.97;78.11
7524;BME280;3803;51.666;7.630;2023-07-29T00:58:42;100153.03;;;20.98;78.09
7524;BME280;3803;51.666;7.630;2023-07-29T00:59:03;100155.63;;;21.00;78.21
7524;BME280;3803;51.666;7.630;2023-07-29T00:59:24;100153.03;;;20.98;78.21
7524;BME280;3803;51.666;7.630;2023-07-29T00:59:46;100148.66;;;20.95;78.18
7524;BME280;3803;51.666;7.630;2023-07-29T01:00:08;100163.56;;;21.01;78.20
7524;BME280;3803;51.666;7.630;2023-07-29T01:00:30;100160.06;;;20.99;78.11
7524;BME280;3803;51.666;7.630;2023-07-29T01:00:50;100151.28;;;20.97;78.23
7524;BME280;3803;51.666;7.630;2023-07-29T01:01:11;100151.34;;;20.94;78.21
7524;BME280;3803;51.666;7.630;2023-07-29T01:01:33;100154.81;;;20.96;78.66
7524;BME280;3803;51.666;7.630;2023-07-29T01:01:54;100148.75;;;20.92;78.29
7524;BME280;3803;51.666;7.630;2023-07-29T01:02:14;100149.59;;;20.94;78.43
7524;BME280;3803;51.666;7.630;2023-07-29T01:02:35;100147.88;;;20.92;78.48
7524;BME280;3803;51.666;7.630;2023-07-29T01:02:56;100145.25;;;20.90;78.37
7524;BME280;3803;51.666;7.630;2023-07-29T01:03:17;100155.72;;;20.96;78.52
7524;BME280;3803;51.666;7.630;2023-07-29T01:03:37;100145.13;;;20.95;78.49
7524;BME280;3803;51.666;7.630;2023-07-29T01:03:59;100139.03;;;20.91;78.54
7524;BME280;3803;51.666;7.630;2023-07-29T01:04:20;100139.00;;;20.93;78.61
7524;BME280;3803;51.666;7.630;2023-07-29T01:04:40;100145.09;;;20.96;78.51
7524;BME280;3803;51.666;7.630;2023-07-29T01:05:02;100130.19;;;20.92;78.56
7524;BME280;3803;51.666;7.630;2023-07-29T01:05:27;100145.00;;;21.00;78.53
7524;BME280;3803;51.666;7.630;2023-07-29T01:06:13;100140.69;;;20.97;78.50
7524;BME280;3803;51.666;7.630;2023-07-29T01:07:03;100151.19;;;21.02;78.52
7524;BME280;3803;51.666;7.630;2023-07-29T01:07:56;100146.66;;;21.05;78.47
7524;BME280;3803;51.666;7.630;2023-07-29T01:08:31;100144.03;;;21.04;78.73
7524;BME280;3803;51.666;7.630;2023-07-29T01:09:01;100144.00;;;21.05;78.62
7524;BME280;3803;51.666;7.630;2023-07-29T01:10:01;100148.41;;;21.06;78.48
7524;BME280;3803;51.666;7.630;2023-07-29T01:11:08;100138.78;;;21.02;78.48
7524;BME280;3803;51.666;7.630;2023-07-29T01:12:28;100143.16;;;21.03;78.52
7524;BME280;3803;51.666;7.630;2023-07-29T01:13:18;100148.31;;;21.09;78.66
7524;BME280;3803;51.666;7.630;2023-07-29T01:13:53;100150.09;;;21.09;78.42
7524;BME280;3803;51.666;7.630;2023-07-29T01:15:17;100140.44;;;21.06;78.20
7524;BME280;3803;51.666;7.630;2023-07-29T01:16:09;100154.44;;;21.12;78.50
7524;BME280;3803;51.666;7.630;2023-07-29T01:16:42;100134.31;;;21.04;78.59
7524;BME280;3803;51.666;7.630;2023-07-29T01:17:09;100140.44;;;21.06;78.75
7524;BME280;3803;51.666;7.630;2023-07-29T01:17:39;100156.22;;;21.13;78.75
7524;BME280;3803;51.666;7.630;2023-07-29T01:18:24;100153.50;;;21.14;78.65
7524;BME280;3803;51.666;7.630;2023-07-29T01:18:47;100148.25;;;21.13;78.52
7524;BME280;3803;51.666;7.630;2023-07-29T01:19:24;100136.84;;;21.09;78.55
7524;BME280;3803;51.666;7.630;2023-07-29T01:20:19;100141.19;;;21.12;78.56
7524;BME280;3803;51.666;7.630;2023-07-29T01:20:42;100138.53;;;21.12;78.34
7524;BME280;3803;51.666;7.630;2023-07-29T01:21:07;100138.50;;;21.13;78.56
7524;BME280;3803;51.666;7.630;2023-07-29T01:21:28;100139.38;;;21.14;78.39
7524;BME280;3803;51.666;7.630;2023-07-29T01:21:50;100135.00;;;21.13;78.33
7524;BME280;3803;51.666;7.630;2023-07-29T01:22:13;100135.00;;;21.13;78.44
7524;BME280;3803;51.666;7.630;2023-07-29T01:22:35;100140.19;;;21.16;78.51
7524;BME280;3803;51.666;7.630;2023-07-29T01:22:57;100131.47;;;21.10;78.44
7524;BME280;3803;51.666;7.630;2023-07-29T01:23:24;100148.13;;;21.17;78.40
7524;BME280;3803;51.666;7.630;2023-07-29T01:23:44;100137.53;;;21.16;78.54
7524;BME280;3803;51.666;7.630;2023-07-29T01:24:05;100143.69;;;21.18;78.49
7524;BME280;3803;51.666;7.630;2023-07-29T01:24:26;100131.44;;;21.12;78.47
7524;BME280;3803;51.666;7.630;2023-07-29T01:24:47;100136.63;;;21.17;78.57
7524;BME280;3803;51.666;7.630;2023-07-29T01:25:07;100142.81;;;21.17;78.26
7524;BME280;3803;51.666;7.630;2023-07-29T01:25:28;100148.00;;;21.22;78.31
7524;BME280;3803;51.666;7.630;2023-07-29T01:25:49;100138.38;;;21.18;78.49
7524;BME280;3803;51.666;7.630;2023-07-29T01:26:09;100133.06;;;21.18;78.46
7524;BME280;3803;51.666;7.630;2023-07-29T01:26:30;100133.16;;;21.15;78.41
7524;BME280;3803;51.666;7.630;2023-07-29T01:26:50;100139.19;;;21.20;78.39
7524;BME280;3803;51.666;7.630;2023-07-29T01:27:11;100140.91;;;21.22;78.37
7524;BME280;3803;51.666;7.630;2023-07-29T01:27:32;100133.06;;;21.18;78.36
7524;BME280;3803;51.666;7.630;2023-07-29T01:27:53;100136.53;;;21.20;78.34
7524;BME280;3803;51.666;7.630;2023-07-29T01:28:15;100136.53;;;21.20;78.41
7524;BME280;3803;51.666;7.630;2023-07-29T01:28:36;100119.78;;;21.18;78.50
7524;BME280;3803;51.666;7.630;2023-07-29T01:28:57;100135.59;;;21.22;78.46
7524;BME280;3803;51.666;7.630;2023-07-29T01:29:18;100133.06;;;21.18;78.48
7524;BME280;3803;51.666;7.630;2023-07-29T01:29:39;100125.09;;;21.18;78.50
7524;BME280;3803;51.666;7.630;2023-07-29T01:30:01;100122.53;;;21.15;78.55
7524;BME280;3803;51.666;7.630;2023-07-29T01:30:29;100132.13;;;21.20;78.28
7524;BME280;3803;51.666;7.630;2023-07-29T01:31:19;100127.75;;;21.18;78.42
7524;BME280;3803;51.666;7.630;2023-07-29T01:31:44;100128.63;;;21.18;78.47
7524;BME280;3803;51.666;7.630;2023-07-29T01:32:11;100130.41;;;21.18;78.43
7524;BME280;3803;51.666;7.630;2023-07-29T01:33:41;100136.53;;;21.20;78.46
7524;BME280;3803;51.666;7.630;2023-07-29T01:34:26;100142.75;;;21.19;78.48
7524;BME280;3803;51.666;7.630;2023-07-29T01:35:15;100133.13;;;21.16;78.45
7524;BME280;3803;51.666;7.630;2023-07-29T01:35:52;100134.78;;;21.19;78.49
7524;BME280;3803;51.666;7.630;2023-07-29T01:36:22;100129.56;;;21.17;78.59
7524;BME280;3803;51.666;7.630;2023-07-29T01:36:49;100122.59;;;21.12;78.41
7524;BME280;3803;51.666;7.630;2023-07-29T01:37:15;100126.13;;;21.14;78.50
7524;BME280;3803;51.666;7.630;2023-07-29T01:37:40;100129.59;;;21.16;78.64
7524;BME280;3803;51.666;7.630;2023-07-29T01:38:10;100126.97;;;21.14;78.53
7524;BME280;3803;51.666;7.630;2023-07-29T01:38:35;100134.78;;;21.19;78.59
7524;BME280;3803;51.666;7.630;2023-07-29T01:38:57;100126.13;;;21.14;78.64
7524;BME280;3803;51.666;7.630;2023-07-29T01:39:21;100120.88;;;21.10;78.77
7524;BME280;3803;51.666;7.630;2023-07-29T01:39:45;100129.69;;;21.13;78.87
7524;BME280;3803;51.666;7.630;2023-07-29T01:40:08;100127.84;;;21.15;78.76
7524;BME280;3803;51.666;7.630;2023-07-29T01:40:30;100132.34;;;21.13;78.49
7524;BME280;3803;51.666;7.630;2023-07-29T01:40:53;100116.44;;;21.11;78.56
7524;BME280;3803;51.666;7.630;2023-07-29T01:41:14;100121.72;;;21.13;78.69
7524;BME280;3803;51.666;7.630;2023-07-29T01:41:36;100115.63;;;21.09;78.49
7524;BME280;3803;51.666;7.630;2023-07-29T01:41:57;100108.63;;;21.06;78.59
7524;BME280;3803;51.666;7.630;2023-07-29T01:42:18;100112.09;;;21.08;78.57
7524;BME280;3803;51.666;7.630;2023-07-29T01:42:39;100113.91;;;21.06;78.49
7524;BME280;3803;51.666;7.630;2023-07-29T01:43:00;100113.91;;;21.06;78.69
7524;BME280;3803;51.666;7.630;2023-07-29T01:43:21;100106.88;;;21.05;78.70
7524;BME280;3803;51.666;7.630;2023-07-29T01:43:44;100113.91;;;21.06;78.70
7524;BME280;3803;51.666;7.630;2023-07-29T01:44:06;100109.53;;;21.05;78.65
7524;BME280;3803;51.666;7.630;2023-07-29T01:44:27;100108.75;;;21.02;78.65
7524;BME280;3803;51.666;7.630;2023-07-29T01:44:48;100103.47;;;21.00;78.72
7524;BME280;3803;51.666;7.630;2023-07-29T01:45:09;100100.03;;;20.96;78.69
7524;BME280;3803;51.666;7.630;2023-07-29T01:45:30;100109.75;;;20.96;78.80
7524;BME280;3803;51.666;7.630;2023-07-29T01:45:56;100112.38;;;20.98;78.74
7524;BME280;3803;51.666;7.630;2023-07-29T01:46:17;100105.44;;;20.92;78.81
7524;BME280;3803;51.666;7.630;2023-07-29T01:46:37;100105.44;;;20.92;78.82
7524;BME280;3803;51.666;7.630;2023-07-29T01:46:59;100110.75;;;20.92;78.83
7524;BME280;3803;51.666;7.630;2023-07-29T01:47:21;100108.13;;;20.90;78.69
7524;BME280;3803;51.666;7.630;2023-07-29T01:47:42;100111.72;;;20.88;78.71
7524;BME280;3803;51.666;7.630;2023-07-29T01:48:07;100114.38;;;20.88;78.86
7524;BME280;3803;51.666;7.630;2023-07-29T01:48:28;100115.16;;;20.91;78.86
7524;BME280;3803;51.666;7.630;2023-07-29T01:48:50;100117.00;;;20.89;78.87
7524;BME280;3803;51.666;7.630;2023-07-29T01:49:11;100103.94;;;20.81;78.85
7524;BME280;3803;51.666;7.630;2023-07-29T01:49:32;100112.72;;;20.84;78.81
7524;BME280;3803;51.666;7.630;2023-07-29T01:49:53;100108.34;;;20.82;78.85
7524;BME280;3803;51.666;7.630;2023-07-29T01:50:14;100109.31;;;20.78;78.80
7524;BME280;3803;51.666;7.630;2023-07-29T01:50:35;100112.81;;;20.80;78.90
7524;BME280;3803;51.666;7.630;2023-07-29T01:50:56;100116.19;;;20.86;78.57
7524;BME280;3803;51.666;7.630;2023-07-29T01:51:17;100105.75;;;20.79;78.85
7524;BME280;3803;51.666;7.630;2023-07-29T01:51:37;100110.19;;;20.79;78.88
7524;BME280;3803;51.666;7.630;2023-07-29T01:51:58;100111.97;;;20.78;78.96
7524;BME280;3803;51.666;7.630;2023-07-29T01:52:19;100118.03;;;20.84;78.97
7524;BME280;3803;51.666;7.630;2023-07-29T01:52:40;100108.47;;;20.78;78.84
7524;BME280;3803;51.666;7.630;2023-07-29T01:53:01;100116.34;;;20.79;79.05
7524;BME280;3803;51.666;7.630;2023-07-29T01:53:22;100112.88;;;20.77;78.96
7524;BME280;3803;51.666;7.630;2023-07-29T01:53:42;100107.56;;;20.77;79.05
7524;BME280;3803;51.666;7.630;2023-07-29T01:54:03;100117.25;;;20.80;79.03
7524;BME280;3803;51.666;7.630;2023-07-29T01:54:24;100109.41;;;20.75;79.11
7524;BME280;3803;51.666;7.630;2023-07-29T01:54:45;100101.47;;;20.74;79.02
7524;BME280;3803;51.666;7.630;2023-07-29T01:55:06;100111.13;;;20.76;78.81
7524;BME280;3803;51.666;7.630;2023-07-29T01:55:28;100114.69;;;20.75;79.02
7524;BME280;3803;51.666;7.630;2023-07-29T01:55:49;100105.00;;;20.74;79.01
7524;BME280;3803;51.666;7.630;2023-07-29T01:56:10;100105.88;;;20.75;79.13
7524;BME280;3803;51.666;7.630;2023-07-29T01:56:35;100099.66;;;20.76;79.04
7524;BME280;3803;51.666;7.630;2023-07-29T01:56:57;100102.38;;;20.74;79.09
7524;BME280;3803;51.666;7.630;2023-07-29T01:57:33;100102.31;;;20.76;79.17
7524;BME280;3803;51.666;7.630;2023-07-29T01:57:53;100105.75;;;20.79;79.04
7524;BME280;3803;51.666;7.630;2023-07-29T01:58:15;100091.75;;;20.74;79.10
7524;BME280;3803;51.666;7.630;2023-07-29T01:58:40;100109.38;;;20.77;79.18
7524;BME280;3803;51.666;7.630;2023-07-29T01:59:00;100112.03;;;20.77;79.15
7524;BME280;3803;51.666;7.630;2023-07-29T01:59:22;100100.53;;;20.76;79.15
7524;BME280;3803;51.666;7.630;2023-07-29T01:59:43;100103.16;;;20.78;78.80
7524;BME280;3803;51.666;7.630;2023-07-29T02:00:04;100105.84;;;20.76;78.95
7524;BME280;3803;51.666;7.630;2023-07-29T02:00:34;100097.06;;;20.74;78.98
7524;BME280;3803;51.666;7.630;2023-07-29T02:01:21;100107.50;;;20.80;79.03
7524;BME280;3803;51.666;7.630;2023-07-29T02:01:41;100103.22;;;20.75;79.24
7524;BME280;3803;51.666;7.630;2023-07-29T02:02:03;100103.19;;;20.76;78.89
7524;BME280;3803;51.666;7.630;2023-07-29T02:02:23;100099.75;;;20.73;79.00
7524;BME280;3803;51.666;7.630;2023-07-29T02:02:45;100099.75;;;20.73;79.00
7524;BME280;3803;51.666;7.630;2023-07-29T02:03:05;100104.09;;;20.75;78.87
7524;BME280;3803;51.666;7.630;2023-07-29T02:03:26;100104.09;;;20.75;78.85
7524;BME280;3803;51.666;7.630;2023-07-29T02:03:47;100098.00;;;20.72;78.81
7524;BME280;3803;51.666;7.630;2023-07-29T02:04:13;100102.41;;;20.71;78.81
7524;BME280;3803;51.666;7.630;2023-07-29T02:04:34;100111.22;;;20.73;78.92
7524;BME280;3803;51.666;7.630;2023-07-29T02:04:55;100111.22;;;20.73;78.83
7524;BME280;3803;51.666;7.630;2023-07-29T02:05:16;100101.56;;;20.71;78.73
7524;BME280;3803;51.666;7.630;2023-07-29T02:05:36;100106.00;;;20.68;78.78
7524;BME280;3803;51.666;7.630;2023-07-29T02:05:57;100106.03;;;20.67;78.79
7524;BME280;3803;51.666;7.630;2023-07-29T02:06:18;100110.44;;;20.68;78.81
7524;BME280;3803;51.666;7.630;2023-07-29T02:06:38;100103.38;;;20.67;78.83